createdAt,value
2018-08-09T00:01:34.909Z,42.38
2018-08-09T00:04:03.176Z,42.32
2018-08-09T00:06:31.462Z,42.15
2018-08-09T00:08:59.766Z,42.74
2018-08-09T00:11:28.366Z,42.59
2018-08-09T00:13:56.710Z,41.85
2018-08-09T00:16:25.010Z,42.56
2018-08-09T00:18:53.339Z,41.95
2018-08-09T00:21:21.690Z,41.83
2018-08-09T00:23:49.995Z,42.81
2018-08-09T00:26:18.326Z,42.67
2018-08-09T00:28:46.700Z,41.95
2018-08-09T00:31:14.994Z,41.84
2018-08-09T00:33:43.367Z,41.95
2018-08-09T00:36:14.584Z,42.71
2018-08-09T00:38:43.041Z,42.74
2018-08-09T00:41:11.428Z,41.94
2018-08-09T00:43:39.768Z,42.71
2018-08-09T00:46:08.089Z,41.99
2018-08-09T00:48:36.410Z,41.96
2018-08-09T00:51:04.730Z,42.69
2018-08-09T00:53:33.046Z,41.88
2018-08-09T00:56:01.366Z,41.85
2018-08-09T00:58:29.694Z,41.91
2018-08-09T01:00:58.023Z,42.20
2018-08-09T01:03:26.386Z,42.14
2018-08-09T01:05:55.300Z,42.31
2018-08-09T01:08:24.447Z,42.49
2018-08-09T01:10:52.750Z,41.81
2018-08-09T01:13:21.059Z,42.40
2018-08-09T01:15:49.378Z,42.61
2018-08-09T01:18:17.713Z,41.82
2018-08-09T01:20:46.041Z,41.72
2018-08-09T01:23:14.354Z,42.46
2018-08-09T01:25:43.064Z,41.45
2018-08-09T01:28:11.651Z,42.42
2018-08-09T01:30:40.554Z,41.65
2018-08-09T01:33:09.050Z,41.71
2018-08-09T01:35:37.540Z,42.32
2018-08-09T01:38:06.059Z,42.45
2018-08-09T01:40:34.374Z,41.75
2018-08-09T01:43:14.054Z,41.60
2018-08-09T01:45:42.385Z,42.15
2018-08-09T01:48:10.726Z,42.27
2018-08-09T01:50:38.995Z,42.14
2018-08-09T01:53:07.358Z,41.65
2018-08-09T01:55:35.691Z,42.23
2018-08-09T01:58:04.102Z,41.52
2018-08-09T02:00:32.381Z,41.42
2018-08-09T02:03:00.686Z,41.96
2018-08-09T02:05:28.994Z,42.35
2018-08-09T02:07:57.350Z,41.58
2018-08-09T02:10:25.714Z,42.31
2018-08-09T02:12:54.033Z,42.39
2018-08-09T02:15:22.314Z,42.59
2018-08-09T02:17:50.606Z,41.55
2018-08-09T02:20:18.928Z,42.49
2018-08-09T02:22:47.222Z,41.55
2018-08-09T02:25:15.621Z,41.60
2018-08-09T02:27:43.938Z,41.60
2018-08-09T02:30:12.242Z,42.16
2018-08-09T02:32:40.628Z,42.19
2018-08-09T02:35:08.949Z,42.21
2018-08-09T02:37:37.278Z,42.08
2018-08-09T02:40:06.068Z,42.11
2018-08-09T02:42:34.373Z,41.86
2018-08-09T02:45:02.683Z,41.99
2018-08-09T02:47:31.470Z,42.16
2018-08-09T02:49:59.911Z,41.22
2018-08-09T02:52:28.230Z,41.21
2018-08-09T02:54:56.537Z,41.84
2018-08-09T02:57:24.884Z,41.89
2018-08-09T02:59:53.170Z,41.09
2018-08-09T03:02:21.484Z,40.96
2018-08-09T03:04:49.844Z,41.84
2018-08-09T03:07:18.157Z,41.05
2018-08-09T03:09:46.438Z,40.99
2018-08-09T03:12:14.775Z,41.34
2018-08-09T03:14:43.088Z,41.73
2018-08-09T03:17:11.444Z,41.03
2018-08-09T03:19:39.758Z,41.66
2018-08-09T03:22:08.070Z,41.70
2018-08-09T03:24:36.423Z,40.79
2018-08-09T03:27:04.836Z,40.65
2018-08-09T03:29:33.170Z,40.96
2018-08-09T03:32:01.494Z,40.74
2018-08-09T03:34:29.830Z,41.07
2018-08-09T03:36:58.277Z,41.41
2018-08-09T03:39:26.596Z,40.80
2018-08-09T03:41:54.861Z,41.04
2018-08-09T03:44:23.308Z,40.84
2018-08-09T03:46:58.174Z,40.73
2018-08-09T03:49:26.498Z,41.06
2018-08-09T03:51:54.962Z,41.56
2018-08-09T03:54:23.299Z,40.90
2018-08-09T03:56:51.596Z,40.69
2018-08-09T03:59:19.967Z,41.50
2018-08-09T04:01:48.318Z,40.82
2018-08-09T04:04:16.673Z,41.48
2018-08-09T04:06:44.970Z,41.38
2018-08-09T04:09:13.306Z,40.93
2018-08-09T04:11:41.724Z,41.69
2018-08-09T04:14:10.350Z,41.11
2018-08-09T04:16:38.670Z,41.26
2018-08-09T04:19:06.994Z,40.83
2018-08-09T04:21:35.342Z,41.56
2018-08-09T04:24:03.682Z,40.79
2018-08-09T04:26:32.072Z,41.46
2018-08-09T04:29:00.467Z,41.22
2018-08-09T04:31:28.766Z,41.49
2018-08-09T04:33:57.070Z,40.70
2018-08-09T04:36:25.369Z,41.61
2018-08-09T04:38:53.686Z,40.89
2018-08-09T04:41:22.007Z,40.91
2018-08-09T04:43:50.413Z,41.90
2018-08-09T04:46:18.746Z,42.03
2018-08-09T04:48:47.031Z,41.79
2018-08-09T04:51:15.386Z,42.00
2018-08-09T04:53:43.690Z,41.91
2018-08-09T04:56:11.958Z,41.36
2018-08-09T04:58:40.399Z,41.24
2018-08-09T05:01:08.954Z,42.01
2018-08-09T05:03:37.291Z,42.16
2018-08-09T05:06:05.595Z,41.07
2018-08-09T05:08:33.929Z,42.30
2018-08-09T05:11:02.230Z,41.60
2018-08-09T05:13:30.530Z,41.56
2018-08-09T05:15:58.897Z,42.21
2018-08-09T05:18:28.390Z,42.52
2018-08-09T05:20:56.790Z,42.32
2018-08-09T05:23:25.158Z,42.12
2018-08-09T05:25:53.514Z,42.27
2018-08-09T05:28:21.913Z,41.88
2018-08-09T05:30:50.323Z,41.66
2018-08-09T05:33:18.667Z,42.08
2018-08-09T05:35:47.070Z,41.30
2018-08-09T05:38:15.378Z,41.29
2018-08-09T05:40:43.725Z,42.02
2018-08-09T05:43:12.058Z,42.23
2018-08-09T05:45:40.473Z,41.44
2018-08-09T05:48:08.739Z,42.15
2018-08-09T05:50:37.190Z,41.45
2018-08-09T05:53:05.588Z,41.60
2018-08-09T05:55:34.010Z,42.43
2018-08-09T05:58:02.369Z,41.96
2018-08-09T06:00:30.761Z,42.54
2018-08-09T06:02:59.049Z,42.56
2018-08-09T06:05:27.426Z,42.70
2018-08-09T06:07:55.698Z,42.73
2018-08-09T06:10:24.042Z,42.17
2018-08-09T06:12:52.349Z,42.88
2018-08-09T06:15:20.762Z,42.32
2018-08-09T06:17:49.079Z,42.48
2018-08-09T06:20:17.414Z,42.60
2018-08-09T06:22:45.938Z,42.80
2018-08-09T06:25:14.302Z,42.73
2018-08-09T06:27:42.643Z,43.30
2018-08-09T06:30:11.655Z,43.84
2018-08-09T06:32:40.490Z,42.68
2018-08-09T06:35:10.323Z,43.04
2018-08-09T06:37:38.874Z,43.29
2018-08-09T06:40:11.868Z,43.15
2018-08-09T06:42:40.541Z,43.78
2018-08-09T06:45:08.886Z,43.56
2018-08-09T06:47:37.349Z,43.99
2018-08-09T06:50:06.655Z,45.06
2018-08-09T06:52:35.014Z,45.09
2018-08-09T06:55:03.593Z,46.46
2018-08-09T06:57:31.958Z,46.26
2018-08-09T07:00:00.288Z,46.95
2018-08-09T07:02:28.605Z,46.22
2018-08-09T07:04:56.912Z,46.59
2018-08-09T07:07:25.263Z,47.39
2018-08-09T07:09:53.634Z,48.52
2018-08-09T07:12:21.914Z,48.96
2018-08-09T07:14:50.254Z,48.76
2018-08-09T07:17:18.902Z,48.82
2018-08-09T07:19:47.290Z,48.85
2018-08-09T07:22:15.586Z,48.84
2018-08-09T07:24:50.418Z,49.58
2018-08-09T07:27:19.357Z,49.27
2018-08-09T07:29:47.675Z,49.93
2018-08-09T07:32:16.086Z,49.66
2018-08-09T07:34:44.413Z,51.20
2018-08-09T07:37:12.787Z,50.40
2018-08-09T07:39:41.159Z,50.76
2018-08-09T07:44:52.123Z,50.75
2018-08-09T07:47:20.447Z,51.59
2018-08-09T07:49:48.751Z,51.80
2018-08-09T07:52:17.204Z,50.99
2018-08-09T07:54:45.530Z,52.08
2018-08-09T07:57:13.874Z,51.54
2018-08-09T07:59:42.270Z,50.91
2018-08-09T08:02:10.615Z,51.67
2018-08-09T08:04:38.945Z,51.39
2018-08-09T08:07:07.466Z,51.59
2018-08-09T08:09:35.804Z,50.95
2018-08-09T08:12:04.146Z,51.63
2018-08-09T08:14:32.433Z,51.92
2018-08-09T08:17:00.737Z,51.31
2018-08-09T08:19:29.058Z,51.59
2018-08-09T08:21:57.406Z,52.82
2018-08-09T08:24:25.733Z,52.12
2018-08-09T08:26:54.162Z,51.46
2018-08-09T08:34:21.646Z,51.50
2018-08-09T08:36:49.972Z,52.02
2018-08-09T08:39:18.389Z,52.11
2018-08-09T08:41:46.891Z,53.69
2018-08-09T08:44:15.131Z,54.09
2018-08-09T08:46:43.456Z,54.60
2018-08-09T08:49:11.739Z,54.84
2018-08-09T08:51:40.043Z,56.51
2018-08-09T08:54:08.354Z,55.32
2018-08-09T08:56:36.658Z,55.01
2018-08-09T08:59:05.006Z,54.05
2018-08-09T09:01:33.355Z,54.34
2018-08-09T09:04:01.652Z,53.74
2018-08-09T09:06:30.039Z,53.06
2018-08-09T09:08:58.398Z,52.72
2018-08-09T09:11:26.765Z,53.32
2018-08-09T09:13:55.542Z,52.44
2018-08-09T09:16:23.893Z,52.73
2018-08-09T09:18:52.239Z,51.78
2018-08-09T09:21:20.591Z,51.97
2018-08-09T09:23:48.947Z,52.09
2018-08-09T09:26:17.307Z,52.19
2018-08-09T09:28:45.637Z,51.99
2018-08-09T09:31:13.961Z,51.89
2018-08-09T09:33:42.295Z,50.96
2018-08-09T09:36:10.598Z,50.77
2018-08-09T09:38:38.906Z,50.84
2018-08-09T09:41:07.286Z,51.74
2018-08-09T09:43:35.614Z,51.98
2018-08-09T09:46:04.058Z,51.83
2018-08-09T09:48:32.386Z,51.77
2018-08-09T09:51:00.782Z,51.48
2018-08-09T09:53:29.119Z,51.25
2018-08-09T09:55:57.635Z,49.88
2018-08-09T09:58:26.005Z,49.97
2018-08-09T10:00:59.580Z,49.04
2018-08-09T10:03:28.040Z,49.28
2018-08-09T10:05:56.730Z,49.53
2018-08-09T10:08:25.087Z,49.25
2018-08-09T10:10:53.363Z,48.56
2018-08-09T10:13:21.707Z,48.35
2018-08-09T10:15:50.004Z,48.88
2018-08-09T10:18:18.387Z,48.15
2018-08-09T10:20:46.694Z,48.43
2018-08-09T10:23:15.031Z,48.30
2018-08-09T10:25:43.360Z,48.62
2018-08-09T10:28:11.690Z,47.96
2018-08-09T10:30:40.019Z,48.63
2018-08-09T10:33:08.359Z,49.10
2018-08-09T10:35:36.688Z,48.11
2018-08-09T10:38:05.034Z,49.13
2018-08-09T10:40:33.385Z,48.78
2018-08-09T10:43:01.826Z,49.08
2018-08-09T10:45:30.158Z,48.76
2018-08-09T10:47:58.478Z,49.50
2018-08-09T10:50:26.782Z,50.29
2018-08-09T10:52:55.112Z,50.27
2018-08-09T10:55:23.425Z,49.32
2018-08-09T10:57:51.772Z,49.96
2018-08-09T11:00:20.095Z,49.44
2018-08-09T11:02:48.385Z,48.80
2018-08-09T11:05:16.819Z,48.52
2018-08-09T11:07:45.182Z,47.56
2018-08-09T11:10:13.563Z,47.62
2018-08-09T11:12:41.910Z,47.60
2018-08-09T11:15:11.759Z,47.81
2018-08-09T11:17:40.487Z,48.66
2018-08-09T11:20:08.842Z,47.68
2018-08-09T11:22:37.799Z,47.37
2018-08-09T11:25:06.927Z,48.22
2018-08-09T11:27:35.226Z,47.49
2018-08-09T11:30:03.907Z,47.31
2018-08-09T11:32:32.814Z,47.30
2018-08-09T11:35:01.124Z,47.32
2018-08-09T11:37:29.578Z,47.46
2018-08-09T11:39:58.248Z,47.92
2018-08-09T11:42:26.865Z,47.46
2018-08-09T11:44:55.638Z,46.72
2018-08-09T11:47:24.666Z,45.92
2018-08-09T11:49:53.592Z,46.79
2018-08-09T11:52:22.951Z,46.68
2018-08-09T11:54:51.550Z,46.73
2018-08-09T11:57:20.120Z,46.52
2018-08-09T11:59:48.963Z,46.03
2018-08-09T12:02:18.240Z,46.08
2018-08-09T12:04:46.651Z,45.23
2018-08-09T12:07:15.012Z,45.54
2018-08-09T12:09:43.349Z,46.28
2018-08-09T12:12:11.713Z,45.90
2018-08-09T12:14:40.039Z,45.59
2018-08-09T12:17:08.370Z,44.87
2018-08-09T12:19:36.782Z,44.83
2018-08-09T12:22:05.411Z,44.53
2018-08-09T12:24:33.780Z,44.26
2018-08-09T12:27:02.130Z,44.44
2018-08-09T12:29:30.510Z,45.07
2018-08-09T12:31:58.918Z,44.46
2018-08-09T12:34:27.392Z,44.34
2018-08-09T12:36:55.731Z,44.20
2018-08-09T12:39:24.116Z,44.55
2018-08-09T12:41:52.503Z,44.83
2018-08-09T12:44:21.011Z,44.47
2018-08-09T12:46:49.367Z,44.44
2018-08-09T12:49:17.722Z,43.92
2018-08-09T12:51:46.119Z,44.38
2018-08-09T12:54:14.497Z,43.58
2018-08-09T12:56:42.875Z,43.81
2018-08-09T12:59:11.226Z,44.63
2018-08-09T13:01:39.633Z,46.83
2018-08-09T13:04:07.983Z,46.17
2018-08-09T13:06:37.284Z,46.59
2018-08-09T13:09:08.039Z,47.83
2018-08-09T13:11:37.427Z,49.06
2018-08-09T13:14:06.063Z,49.23
2018-08-09T13:16:34.427Z,49.71
2018-08-09T13:19:02.794Z,50.67
2018-08-09T13:21:31.102Z,51.98
2018-08-09T13:23:59.425Z,53.00
2018-08-09T13:26:27.783Z,55.23
2018-08-09T13:28:56.139Z,58.19
2018-08-09T13:31:24.560Z,54.46
2018-08-09T13:33:52.874Z,53.28
2018-08-09T13:36:21.226Z,53.26
2018-08-09T13:38:49.646Z,52.48
2018-08-09T13:41:17.980Z,51.79
2018-08-09T13:43:46.538Z,51.27
2018-08-09T13:46:14.927Z,51.66
2018-08-09T13:48:43.242Z,51.73
2018-08-09T13:51:11.567Z,51.68
2018-08-09T13:53:39.952Z,51.11
2018-08-09T13:56:08.264Z,51.68
2018-08-09T13:58:36.614Z,51.73
2018-08-09T14:01:05.058Z,50.88
2018-08-09T14:03:33.403Z,51.58
2018-08-09T14:06:01.747Z,51.73
2018-08-09T14:08:30.202Z,51.61
2018-08-09T14:10:58.494Z,50.99
2018-08-09T14:13:26.874Z,51.05
2018-08-09T14:15:55.308Z,50.98
2018-08-09T14:18:23.619Z,51.61
2018-08-09T14:20:51.941Z,51.28
2018-08-09T14:23:20.254Z,51.52
2018-08-09T14:25:48.627Z,51.66
2018-08-09T14:28:16.992Z,51.27
2018-08-09T14:30:45.326Z,51.90
2018-08-09T14:33:13.674Z,51.11
2018-08-09T14:35:42.120Z,50.81
2018-08-09T14:38:10.424Z,51.18
2018-08-09T14:40:38.810Z,52.08
2018-08-09T14:43:07.249Z,50.95
2018-08-09T14:45:35.672Z,50.99
2018-08-09T14:48:04.111Z,51.26
2018-08-09T14:50:32.503Z,51.75
2018-08-09T14:53:00.818Z,52.06
2018-08-09T14:55:29.242Z,51.37
2018-08-09T14:57:57.582Z,52.32
2018-08-09T15:00:25.955Z,51.92
2018-08-09T15:02:54.413Z,51.33
2018-08-09T15:05:22.817Z,52.30
2018-08-09T15:07:51.368Z,51.79
2018-08-09T15:10:19.714Z,52.30
2018-08-09T15:12:48.106Z,52.41
2018-08-09T15:15:16.499Z,51.74
2018-08-09T15:17:44.854Z,52.10
2018-08-09T15:20:14.015Z,52.94
2018-08-09T15:22:42.463Z,51.44
2018-08-09T15:25:11.435Z,50.94
2018-08-09T15:27:39.944Z,51.48
2018-08-09T15:30:11.822Z,51.48
2018-08-09T15:32:40.262Z,51.13
2018-08-09T15:35:08.763Z,51.67
2018-08-09T15:37:37.125Z,51.14
2018-08-09T15:40:06.510Z,51.64
2018-08-09T15:42:34.816Z,51.97
2018-08-09T15:45:03.176Z,51.05
2018-08-09T15:47:31.582Z,51.39
2018-08-09T15:50:00.166Z,51.21
2018-08-09T15:52:28.810Z,51.43
2018-08-09T15:54:57.379Z,51.86
2018-08-09T15:57:25.839Z,52.35
2018-08-09T15:59:54.199Z,51.50
2018-08-09T16:02:22.619Z,52.36
2018-08-09T16:04:51.046Z,51.65
2018-08-09T16:07:19.443Z,52.66
2018-08-09T16:09:47.788Z,52.74
2018-08-09T16:12:16.195Z,52.39
2018-08-09T16:14:44.635Z,53.02
2018-08-09T16:17:13.091Z,52.68
2018-08-09T16:19:41.485Z,53.13
2018-08-09T16:22:09.952Z,53.25
2018-08-09T16:24:38.319Z,53.10
2018-08-09T16:27:06.793Z,52.59
2018-08-09T16:29:35.174Z,52.87
2018-08-09T16:32:03.566Z,54.05
2018-08-09T16:34:32.006Z,54.68
2018-08-09T16:37:00.479Z,54.97
2018-08-09T16:39:28.874Z,54.93
2018-08-09T16:41:57.286Z,56.14
2018-08-09T16:44:25.707Z,55.65
2018-08-09T16:46:54.047Z,56.19
2018-08-09T16:49:22.411Z,55.40
2018-08-09T16:51:50.824Z,55.46
2018-08-09T16:54:20.102Z,55.80
2018-08-09T16:56:48.559Z,54.72
2018-08-09T16:59:16.944Z,54.60
2018-08-09T17:01:45.342Z,54.94
2018-08-09T17:04:13.722Z,54.52
2018-08-09T17:06:42.171Z,54.95
2018-08-09T17:09:12.451Z,55.54
2018-08-09T17:11:43.447Z,55.91
2018-08-09T17:14:12.854Z,55.08
2018-08-09T17:16:41.204Z,54.84
2018-08-09T17:19:09.903Z,55.53
2018-08-09T17:21:38.507Z,54.57
2018-08-09T17:24:09.043Z,55.37
2018-08-09T17:26:38.282Z,54.69
2018-08-09T17:29:07.453Z,55.13
2018-08-09T17:31:35.830Z,55.30
2018-08-09T17:34:04.312Z,55.28
2018-08-09T17:36:32.793Z,54.97
2018-08-09T17:39:01.261Z,55.14
2018-08-09T17:41:29.625Z,55.77
2018-08-09T17:43:57.942Z,56.20
2018-08-09T17:46:26.396Z,56.65
2018-08-09T17:48:54.712Z,55.94
2018-08-09T17:51:24.133Z,56.32
2018-08-09T17:53:52.472Z,55.37
2018-08-09T17:56:20.938Z,55.03
2018-08-09T17:58:49.258Z,55.67
2018-08-09T18:01:17.634Z,55.94
2018-08-09T18:03:46.045Z,55.12
2018-08-09T18:06:14.414Z,55.95
2018-08-09T18:08:42.817Z,54.91
2018-08-09T18:11:11.233Z,54.94
2018-08-09T18:13:39.675Z,55.08
2018-08-09T18:16:08.065Z,55.40
2018-08-09T18:18:36.414Z,55.28
2018-08-09T18:21:04.843Z,55.38
2018-08-09T18:23:33.251Z,55.42
2018-08-09T18:26:01.719Z,55.36
2018-08-09T18:28:30.119Z,54.33
2018-08-09T18:30:58.817Z,54.28
2018-08-09T18:33:27.474Z,54.71
2018-08-09T18:35:56.148Z,54.00
2018-08-09T18:38:24.816Z,53.18
2018-08-09T18:40:53.798Z,52.79
2018-08-09T18:43:22.348Z,53.01
2018-08-09T18:45:50.901Z,53.27
2018-08-09T18:48:19.556Z,52.84
2018-08-09T18:50:48.203Z,52.16
2018-08-09T18:53:16.778Z,52.15
2018-08-09T18:55:45.234Z,51.39
2018-08-09T18:58:13.591Z,51.29
2018-08-09T19:00:41.973Z,50.29
2018-08-09T19:03:11.750Z,50.86
2018-08-09T19:05:40.135Z,50.75
2018-08-09T19:08:08.473Z,49.45
2018-08-09T19:10:36.819Z,50.09
2018-08-09T19:13:05.195Z,50.14
2018-08-09T19:15:33.591Z,49.94
2018-08-09T19:18:02.637Z,49.58
2018-08-09T19:20:32.375Z,48.45
2018-08-09T19:23:00.898Z,49.02
2018-08-09T19:25:29.237Z,48.08
2018-08-09T19:27:57.815Z,47.75
2018-08-09T19:30:27.586Z,47.80
2018-08-09T19:32:55.985Z,47.71
2018-08-09T19:35:24.521Z,48.33
2018-08-09T19:37:52.913Z,48.46
2018-08-09T19:40:22.359Z,48.02
2018-08-09T19:42:50.805Z,47.28
2018-08-09T19:45:19.833Z,47.43
2018-08-09T19:47:48.297Z,48.33
2018-08-09T19:50:18.162Z,47.51
2018-08-09T19:52:46.638Z,47.60
2018-08-09T19:55:16.448Z,46.99
2018-08-09T19:57:45.916Z,48.12
2018-08-09T20:00:17.144Z,47.90
2018-08-09T20:02:46.618Z,48.40
2018-08-09T20:05:15.099Z,47.84
2018-08-09T20:07:43.691Z,48.34
2018-08-09T20:10:12.779Z,47.79
2018-08-09T20:12:41.542Z,48.07
2018-08-09T20:15:12.618Z,48.54
2018-08-09T20:17:41.207Z,48.18
2018-08-09T20:20:10.470Z,48.86
2018-08-09T20:22:38.952Z,48.78
2018-08-09T20:25:08.291Z,48.65
2018-08-09T20:27:38.021Z,47.78
2018-08-09T20:30:10.321Z,48.72
2018-08-09T20:32:39.026Z,48.59
2018-08-09T20:35:25.680Z,48.66
2018-08-09T20:37:54.137Z,48.28
2018-08-09T20:40:23.427Z,47.81
2018-08-09T20:42:53.067Z,47.83
2018-08-09T20:45:22.826Z,48.01
2018-08-09T20:47:51.324Z,48.63
2018-08-09T20:50:22.374Z,47.81
2018-08-09T20:52:51.338Z,48.33
2018-08-09T20:55:19.946Z,47.89
2018-08-09T20:57:49.124Z,48.36
2018-08-09T21:00:27.119Z,47.87
2018-08-09T21:02:56.919Z,47.50
2018-08-09T21:05:27.808Z,48.27
2018-08-09T21:07:56.526Z,47.67
2018-08-09T21:10:25.407Z,47.44
2018-08-09T21:12:53.758Z,47.89
2018-08-09T21:15:22.332Z,47.29
2018-08-09T21:17:50.975Z,48.27
2018-08-09T21:20:19.580Z,47.82
2018-08-09T21:22:48.969Z,47.44
2018-08-09T21:25:17.371Z,48.28
2018-08-09T21:27:46.270Z,48.26
2018-08-09T21:30:17.346Z,47.36
2018-08-09T21:32:46.140Z,47.61
2018-08-09T21:35:14.498Z,47.75
2018-08-09T21:37:43.442Z,48.15
2018-08-09T21:40:12.602Z,48.08
2018-08-09T21:42:41.111Z,47.23
2018-08-09T21:45:11.516Z,47.45
2018-08-09T21:47:39.879Z,47.10
2018-08-09T21:50:10.636Z,47.72
2018-08-09T21:52:39.270Z,47.87
2018-08-09T21:55:07.903Z,47.24
2018-08-09T21:57:36.521Z,47.62
2018-08-09T22:00:08.510Z,47.69
2018-08-09T22:02:36.845Z,47.69
2018-08-09T22:05:10.556Z,46.87
2018-08-09T22:07:44.146Z,47.23
2018-08-09T22:10:17.858Z,46.58
2018-08-09T22:12:51.410Z,46.38
2018-08-09T22:15:25.301Z,47.10
2018-08-09T22:17:58.894Z,47.19
2018-08-09T22:20:32.679Z,46.35
2018-08-09T22:23:01.241Z,46.57
2018-08-09T22:25:29.647Z,46.30
2018-08-09T22:27:58.010Z,46.86
2018-08-09T22:30:26.407Z,45.89
2018-08-09T22:32:54.782Z,46.13
2018-08-09T22:35:23.780Z,46.30
2018-08-09T22:37:52.128Z,46.96
2018-08-09T22:40:20.483Z,46.88
2018-08-09T22:42:48.844Z,46.82
2018-08-09T22:45:17.318Z,46.82
2018-08-09T22:47:45.595Z,45.60
2018-08-09T22:50:13.974Z,46.68
2018-08-09T22:52:42.315Z,45.60
2018-08-09T22:55:10.687Z,46.50
2018-08-09T22:57:39.017Z,46.77
2018-08-09T23:00:13.394Z,46.30
2018-08-09T23:02:41.709Z,46.10
2018-08-09T23:05:10.094Z,46.68
2018-08-09T23:07:38.451Z,46.00
2018-08-09T23:10:06.952Z,46.34
2018-08-09T23:12:35.371Z,46.29
2018-08-09T23:15:04.797Z,45.21
2018-08-09T23:17:33.115Z,45.54
2018-08-09T23:20:01.553Z,45.46
2018-08-09T23:22:29.847Z,45.53
2018-08-09T23:24:58.183Z,46.11
2018-08-09T23:27:26.476Z,46.01
2018-08-09T23:29:54.850Z,45.40
2018-08-09T23:32:23.270Z,45.50
2018-08-09T23:34:51.601Z,45.73
2018-08-09T23:37:20.022Z,46.14
2018-08-09T23:39:48.331Z,46.04
2018-08-09T23:42:16.654Z,45.88
2018-08-09T23:44:45.031Z,46.10
2018-08-09T23:47:13.335Z,45.22
2018-08-09T23:49:41.634Z,45.86
2018-08-09T23:52:09.990Z,45.46
2018-08-09T23:54:38.324Z,45.55
2018-08-09T23:57:06.642Z,45.37
2018-08-09T23:59:34.975Z,46.11
